sensor_id;sensor_type;location;lat;lon;timestamp;pressure;altitude;pressure_sealevel;temperature;humidity
23361;BME280;11852;50.082;18.554;2023-02-28T00:00:19;99760.0;;;0.61;58.47
23361;BME280;11852;50.082;18.554;2023-02-28T00:01:25;99757.99;;;0.62;58.49
23361;BME280;11852;50.082;18.554;2023-02-28T00:02:32;99760.0;;;0.54;58.65
23361;BME280;11852;50.082;18.554;2023-02-28T00:03:39;99761.5;;;0.56;58.6
23361;BME280;11852;50.082;18.554;2023-02-28T00:04:46;99761.5;;;0.57;58.56
23361;BME280;11852;50.082;18.554;2023-02-28T00:05:53;99759.5;;;0.6;58.66
23361;BME280;11852;50.082;18.554;2023-02-28T00:07:00;99760.5;;;0.57;58.85
23361;BME280;11852;50.082;18.554;2023-02-28T00:08:08;99760.5;;;0.44;58.94
23361;BME280;11852;50.082;18.554;2023-02-28T00:09:15;99762.0;;;0.44;58.88
23361;BME280;11852;50.082;18.554;2023-02-28T00:10:24;99762.5;;;0.46;58.92
23361;BME280;11852;50.082;18.554;2023-02-28T00:11:29;99763.5;;;0.53;58.85
23361;BME280;11852;50.082;18.554;2023-02-28T00:12:38;99763.5;;;0.5;59.08
23361;BME280;11852;50.082;18.554;2023-02-28T00:13:45;99767.01;;;0.46;59.17
23361;BME280;11852;50.082;18.554;2023-02-28T00:14:51;99765.5;;;0.48;59.01
23361;BME280;11852;50.082;18.554;2023-02-28T00:16:02;99766.5;;;0.52;58.99
23361;BME280;11852;50.082;18.554;2023-02-28T00:17:08;99766.0;;;0.54;59.17
23361;BME280;11852;50.082;18.554;2023-02-28T00:18:15;99767.51;;;0.57;59.29
23361;BME280;11852;50.082;18.554;2023-02-28T00:19:22;99769.0;;;0.55;59.4
23361;BME280;11852;50.082;18.554;2023-02-28T00:20:29;99772.0;;;0.55;59.18
23361;BME280;11852;50.082;18.554;2023-02-28T00:21:36;99775.0;;;0.55;59.04
23361;BME280;11852;50.082;18.554;2023-02-28T00:22:44;99775.0;;;0.58;59.14
23361;BME280;11852;50.082;18.554;2023-02-28T00:23:50;99774.5;;;0.48;59.41
23361;BME280;11852;50.082;18.554;2023-02-28T00:24:57;99770.49;;;0.55;59.19
23361;BME280;11852;50.082;18.554;2023-02-28T00:26:04;99772.0;;;0.57;59.27
23361;BME280;11852;50.082;18.554;2023-02-28T00:27:11;99776.5;;;0.52;59.5
23361;BME280;11852;50.082;18.554;2023-02-28T00:28:18;99774.5;;;0.53;59.45
23361;BME280;11852;50.082;18.554;2023-02-28T00:29:24;99774.0;;;0.56;59.43
23361;BME280;11852;50.082;18.554;2023-02-28T00:30:32;99774.5;;;0.6;59.55
23361;BME280;11852;50.082;18.554;2023-02-28T00:31:39;99776.0;;;0.63;59.79
23361;BME280;11852;50.082;18.554;2023-02-28T00:32:46;99775.5;;;0.62;59.75
23361;BME280;11852;50.082;18.554;2023-02-28T00:33:53;99774.0;;;0.63;59.62
23361;BME280;11852;50.082;18.554;2023-02-28T00:35:03;99776.0;;;0.65;59.72
23361;BME280;11852;50.082;18.554;2023-02-28T00:36:09;99775.0;;;0.67;59.95
23361;BME280;11852;50.082;18.554;2023-02-28T00:37:15;99774.0;;;0.68;60.04
23361;BME280;11852;50.082;18.554;2023-02-28T00:38:22;99777.5;;;0.69;59.98
23361;BME280;11852;50.082;18.554;2023-02-28T00:39:29;99774.0;;;0.69;59.97
23361;BME280;11852;50.082;18.554;2023-02-28T00:40:36;99774.5;;;0.64;59.99
23361;BME280;11852;50.082;18.554;2023-02-28T00:41:43;99777.0;;;0.65;60.06
23361;BME280;11852;50.082;18.554;2023-02-28T00:42:50;99774.5;;;0.66;59.95
23361;BME280;11852;50.082;18.554;2023-02-28T00:43:57;99775.0;;;0.65;59.96
23361;BME280;11852;50.082;18.554;2023-02-28T00:45:05;99773.0;;;0.63;60.2
23361;BME280;11852;50.082;18.554;2023-02-28T00:46:12;99770.49;;;0.6;60.52
23361;BME280;11852;50.082;18.554;2023-02-28T00:47:22;99774.5;;;0.61;60.67
23361;BME280;11852;50.082;18.554;2023-02-28T00:48:26;99771.5;;;0.6;60.79
23361;BME280;11852;50.082;18.554;2023-02-28T00:49:38;99773.0;;;0.59;61.02
23361;BME280;11852;50.082;18.554;2023-02-28T00:50:48;99774.5;;;0.57;61.08
23361;BME280;11852;50.082;18.554;2023-02-28T00:51:53;99773.5;;;0.53;61.42
23361;BME280;11852;50.082;18.554;2023-02-28T00:53:00;99778.5;;;0.54;61.7
23361;BME280;11852;50.082;18.554;2023-02-28T00:54:10;99782.99;;;0.52;62.33
23361;BME280;11852;50.082;18.554;2023-02-28T00:55:17;99781.5;;;0.52;62.39
23361;BME280;11852;50.082;18.554;2023-02-28T00:56:24;99779.5;;;0.51;62.46
23361;BME280;11852;50.082;18.554;2023-02-28T00:57:31;99778.0;;;0.52;62.52
23361;BME280;11852;50.082;18.554;2023-02-28T00:58:38;99775.5;;;0.53;62.39
23361;BME280;11852;50.082;18.554;2023-02-28T00:59:45;99774.5;;;0.52;62.04
23361;BME280;11852;50.082;18.554;2023-02-28T01:00:53;99774.0;;;0.52;61.76
23361;BME280;11852;50.082;18.554;2023-02-28T01:02:00;99771.0;;;0.51;61.87
23361;BME280;11852;50.082;18.554;2023-02-28T01:03:06;99774.0;;;0.5;62.12
23361;BME280;11852;50.082;18.554;2023-02-28T01:04:13;99773.0;;;0.48;62.84
23361;BME280;11852;50.082;18.554;2023-02-28T01:05:20;99771.0;;;0.47;63.31
23361;BME280;11852;50.082;18.554;2023-02-28T01:06:28;99769.49;;;0.45;63.34
23361;BME280;11852;50.082;18.554;2023-02-28T01:07:35;99770.49;;;0.42;63.24
23361;BME280;11852;50.082;18.554;2023-02-28T01:08:42;99768.0;;;0.39;63.32
23361;BME280;11852;50.082;18.554;2023-02-28T01:09:51;99767.51;;;0.36;63.6
23361;BME280;11852;50.082;18.554;2023-02-28T01:10:55;99767.01;;;0.36;63.53
23361;BME280;11852;50.082;18.554;2023-02-28T01:12:02;99771.0;;;0.35;63.44
23361;BME280;11852;50.082;18.554;2023-02-28T01:13:09;99768.0;;;0.34;63.29
23361;BME280;11852;50.082;18.554;2023-02-28T01:14:17;99767.0;;;0.31;63.26
23361;BME280;11852;50.082;18.554;2023-02-28T01:15:23;99765.5;;;0.28;63.7
23361;BME280;11852;50.082;18.554;2023-02-28T01:16:30;99763.0;;;0.28;63.95
23361;BME280;11852;50.082;18.554;2023-02-28T01:17:37;99763.5;;;0.25;64.17
23361;BME280;11852;50.082;18.554;2023-02-28T01:18:47;99763.5;;;0.25;63.95
23361;BME280;11852;50.082;18.554;2023-02-28T01:19:54;99763.5;;;0.24;63.79
23361;BME280;11852;50.082;18.554;2023-02-28T01:21:06;99759.5;;;0.21;63.76
23361;BME280;11852;50.082;18.554;2023-02-28T01:22:12;99759.5;;;0.22;63.65
23361;BME280;11852;50.082;18.554;2023-02-28T01:23:23;99759.0;;;0.19;63.72
23361;BME280;11852;50.082;18.554;2023-02-28T01:24:30;99757.0;;;0.17;63.79
23361;BME280;11852;50.082;18.554;2023-02-28T01:25:37;99756.99;;;0.13;63.95
23361;BME280;11852;50.082;18.554;2023-02-28T01:26:44;99756.5;;;0.15;63.9
23361;BME280;11852;50.082;18.554;2023-02-28T01:27:51;99755.5;;;0.15;63.85
23361;BME280;11852;50.082;18.554;2023-02-28T01:28:58;99758.5;;;0.14;63.78
23361;BME280;11852;50.082;18.554;2023-02-28T01:30:06;99755.01;;;0.11;63.95
23361;BME280;11852;50.082;18.554;2023-02-28T01:31:12;99755.5;;;0.11;64.04
23361;BME280;11852;50.082;18.554;2023-02-28T01:32:19;99755.5;;;0.1;64.0
23361;BME280;11852;50.082;18.554;2023-02-28T01:33:25;99756.0;;;0.08;63.79
23361;BME280;11852;50.082;18.554;2023-02-28T01:34:32;99754.0;;;0.07;63.72
23361;BME280;11852;50.082;18.554;2023-02-28T01:35:39;99755.51;;;0.03;63.57
23361;BME280;11852;50.082;18.554;2023-02-28T01:36:49;99754.5;;;0.02;63.44
23361;BME280;11852;50.082;18.554;2023-02-28T01:37:56;99756.0;;;0.04;63.28
23361;BME280;11852;50.082;18.554;2023-02-28T01:39:04;99754.5;;;0.03;63.0
23361;BME280;11852;50.082;18.554;2023-02-28T01:40:11;99755.0;;;0.01;62.89
23361;BME280;11852;50.082;18.554;2023-02-28T01:41:22;99753.0;;;0.01;62.69
23361;BME280;11852;50.082;18.554;2023-02-28T01:42:28;99750.0;;;0.01;62.66
23361;BME280;11852;50.082;18.554;2023-02-28T01:44:59;99748.0;;;0.0;62.78
23361;BME280;11852;50.082;18.554;2023-02-28T01:46:04;99749.0;;;-0.01;62.78
23361;BME280;11852;50.082;18.554;2023-02-28T01:47:11;99746.5;;;-0.01;62.83
23361;BME280;11852;50.082;18.554;2023-02-28T01:48:18;99747.0;;;-0.01;62.92
23361;BME280;11852;50.082;18.554;2023-02-28T01:49:25;99745.5;;;-0.08;63.04
23361;BME280;11852;50.082;18.554;2023-02-28T01:50:34;99746.5;;;-0.08;63.12
23361;BME280;11852;50.082;18.554;2023-02-28T01:51:41;99744.99;;;-0.11;63.35
23361;BME280;11852;50.082;18.554;2023-02-28T01:52:47;99747.5;;;-0.15;63.58
23361;BME280;11852;50.082;18.554;2023-02-28T01:53:57;99743.51;;;-0.14;63.67
23361;BME280;11852;50.082;18.554;2023-02-28T01:55:02;99748.0;;;-0.15;63.71
23361;BME280;11852;50.082;18.554;2023-02-28T01:56:09;99746.5;;;-0.15;64.04
23361;BME280;11852;50.082;18.554;2023-02-28T01:57:18;99750.0;;;-0.18;64.17
23361;BME280;11852;50.082;18.554;2023-02-28T01:58:23;99751.0;;;-0.2;64.38
23361;BME280;11852;50.082;18.554;2023-02-28T01:59:34;99752.0;;;-0.21;64.32
23361;BME280;11852;50.082;18.554;2023-02-28T02:00:39;99755.5;;;-0.24;64.17
23361;BME280;11852;50.082;18.554;2023-02-28T02:01:47;99754.0;;;-0.25;63.84
23361;BME280;11852;50.082;18.554;2023-02-28T02:02:56;99752.0;;;-0.27;63.79
23361;BME280;11852;50.082;18.554;2023-02-28T02:04:01;99751.0;;;-0.28;63.81
23361;BME280;11852;50.082;18.554;2023-02-28T02:05:10;99751.0;;;-0.32;63.9
23361;BME280;11852;50.082;18.554;2023-02-28T02:06:16;99750.5;;;-0.38;64.28
23361;BME280;11852;50.082;18.554;2023-02-28T02:07:22;99750.5;;;-0.4;64.49
23361;BME280;11852;50.082;18.554;2023-02-28T02:08:31;99750.5;;;-0.38;64.62
23361;BME280;11852;50.082;18.554;2023-02-28T02:09:38;99748.0;;;-0.39;64.54
23361;BME280;11852;50.082;18.554;2023-02-28T02:10:53;99747.5;;;-0.39;64.68
23361;BME280;11852;50.082;18.554;2023-02-28T02:11:59;99744.99;;;-0.39;64.83
23361;BME280;11852;50.082;18.554;2023-02-28T02:14:23;99741.0;;;-0.41;65.12
23361;BME280;11852;50.082;18.554;2023-02-28T02:15:34;99741.0;;;-0.41;65.18
23361;BME280;11852;50.082;18.554;2023-02-28T02:16:51;99741.0;;;-0.4;65.2
23361;BME280;11852;50.082;18.554;2023-02-28T02:17:52;99736.0;;;-0.39;65.1
23361;BME280;11852;50.082;18.554;2023-02-28T02:25:13;99736.0;;;-0.4;65.35
23361;BME280;11852;50.082;18.554;2023-02-28T02:30:12;99737.0;;;-0.43;65.2
23361;BME280;11852;50.082;18.554;2023-02-28T02:30:47;99737.0;;;-0.43;65.2
23361;BME280;11852;50.082;18.554;2023-02-28T02:32:42;99741.0;;;-0.51;65.29
23361;BME280;11852;50.082;18.554;2023-02-28T02:33:48;99744.0;;;-0.52;65.35
23361;BME280;11852;50.082;18.554;2023-02-28T02:35:43;99741.0;;;-0.52;65.62
23361;BME280;11852;50.082;18.554;2023-02-28T02:36:04;99743.51;;;-0.54;65.77
23361;BME280;11852;50.082;18.554;2023-02-28T02:37:15;99745.0;;;-0.58;66.13
23361;BME280;11852;50.082;18.554;2023-02-28T02:38:35;99745.0;;;-0.61;66.58
23361;BME280;11852;50.082;18.554;2023-02-28T02:39:44;99744.5;;;-0.63;66.74
23361;BME280;11852;50.082;18.554;2023-02-28T02:40:53;99744.99;;;-0.67;66.68
23361;BME280;11852;50.082;18.554;2023-02-28T02:41:58;99746.0;;;-0.73;66.79
23361;BME280;11852;50.082;18.554;2023-02-28T02:44:26;99743.0;;;-0.78;67.4
23361;BME280;11852;50.082;18.554;2023-02-28T02:45:41;99741.0;;;-0.8;67.47
23361;BME280;11852;50.082;18.554;2023-02-28T02:46:47;99742.51;;;-0.8;67.55
23361;BME280;11852;50.082;18.554;2023-02-28T02:47:53;99740.0;;;-0.83;67.53
23361;BME280;11852;50.082;18.554;2023-02-28T02:49:00;99740.5;;;-0.82;67.54
23361;BME280;11852;50.082;18.554;2023-02-28T02:50:08;99742.51;;;-0.85;67.67
23361;BME280;11852;50.082;18.554;2023-02-28T02:51:14;99742.51;;;-0.85;67.5
23361;BME280;11852;50.082;18.554;2023-02-28T02:52:22;99746.0;;;-0.87;67.54
23361;BME280;11852;50.082;18.554;2023-02-28T02:53:30;99749.0;;;-0.85;67.6
23361;BME280;11852;50.082;18.554;2023-02-28T02:54:36;99749.5;;;-0.92;67.54
23361;BME280;11852;50.082;18.554;2023-02-28T02:55:43;99751.0;;;-0.91;67.12
23361;BME280;11852;50.082;18.554;2023-02-28T02:56:49;99751.5;;;-0.89;67.07
23361;BME280;11852;50.082;18.554;2023-02-28T02:58:02;99750.5;;;-0.9;67.35
23361;BME280;11852;50.082;18.554;2023-02-28T02:59:11;99752.0;;;-0.89;67.46
23361;BME280;11852;50.082;18.554;2023-02-28T03:00:17;99750.0;;;-0.9;67.56
23361;BME280;11852;50.082;18.554;2023-02-28T03:01:29;99751.5;;;-0.88;67.43
23361;BME280;11852;50.082;18.554;2023-02-28T03:02:36;99754.51;;;-0.88;67.21
23361;BME280;11852;50.082;18.554;2023-02-28T03:03:42;99754.51;;;-0.91;67.2
23361;BME280;11852;50.082;18.554;2023-02-28T03:04:53;99757.99;;;-0.91;67.27
23361;BME280;11852;50.082;18.554;2023-02-28T03:06:00;99758.5;;;-0.93;67.36
23361;BME280;11852;50.082;18.554;2023-02-28T03:07:06;99756.0;;;-0.94;67.57
23361;BME280;11852;50.082;18.554;2023-02-28T03:08:13;99756.5;;;-0.97;67.71
23361;BME280;11852;50.082;18.554;2023-02-28T03:09:23;99759.5;;;-0.99;67.9
23361;BME280;11852;50.082;18.554;2023-02-28T03:10:32;99757.49;;;-1.01;67.95
23361;BME280;11852;50.082;18.554;2023-02-28T03:11:37;99763.0;;;-1.03;67.85
23361;BME280;11852;50.082;18.554;2023-02-28T03:12:48;99758.5;;;-1.03;67.85
23361;BME280;11852;50.082;18.554;2023-02-28T03:20:57;99758.0;;;-1.01;67.73
23361;BME280;11852;50.082;18.554;2023-02-28T03:21:26;99757.49;;;-1.05;67.75
23361;BME280;11852;50.082;18.554;2023-02-28T03:23:44;99757.5;;;-1.03;67.57
23361;BME280;11852;50.082;18.554;2023-02-28T03:25:20;99751.0;;;-1.02;67.37
23361;BME280;11852;50.082;18.554;2023-02-28T03:28:54;99750.5;;;-0.98;67.17
23361;BME280;11852;50.082;18.554;2023-02-28T03:30:01;99753.5;;;-1.01;67.19
23361;BME280;11852;50.082;18.554;2023-02-28T03:31:54;99753.5;;;-1.02;66.7
23361;BME280;11852;50.082;18.554;2023-02-28T03:33:34;99753.0;;;-1.0;66.43
23361;BME280;11852;50.082;18.554;2023-02-28T03:34:41;99751.5;;;-1.0;66.38
23361;BME280;11852;50.082;18.554;2023-02-28T03:35:51;99754.51;;;-0.99;66.4
23361;BME280;11852;50.082;18.554;2023-02-28T03:37:02;99756.5;;;-0.97;66.44
23361;BME280;11852;50.082;18.554;2023-02-28T03:38:09;99758.5;;;-0.97;66.55
23361;BME280;11852;50.082;18.554;2023-02-28T03:39:24;99759.0;;;-1.02;66.6
23361;BME280;11852;50.082;18.554;2023-02-28T03:40:21;99760.5;;;-1.02;66.58
23361;BME280;11852;50.082;18.554;2023-02-28T03:41:31;99760.5;;;-1.05;66.75
23361;BME280;11852;50.082;18.554;2023-02-28T03:42:37;99759.5;;;-1.04;66.85
23361;BME280;11852;50.082;18.554;2023-02-28T03:44:57;99761.5;;;-1.07;67.18
23361;BME280;11852;50.082;18.554;2023-02-28T03:46:03;99762.0;;;-1.07;67.13
23361;BME280;11852;50.082;18.554;2023-02-28T03:47:11;99762.0;;;-1.07;67.01
23361;BME280;11852;50.082;18.554;2023-02-28T03:48:18;99757.49;;;-1.07;66.93
23361;BME280;11852;50.082;18.554;2023-02-28T03:49:27;99756.99;;;-1.04;66.89
23361;BME280;11852;50.082;18.554;2023-02-28T03:50:37;99756.99;;;-1.03;66.9
23361;BME280;11852;50.082;18.554;2023-02-28T03:51:46;99763.5;;;-1.02;66.87
23361;BME280;11852;50.082;18.554;2023-02-28T03:54:11;99765.0;;;-1.04;66.83
23361;BME280;11852;50.082;18.554;2023-02-28T03:55:16;99767.5;;;-1.07;66.78
23361;BME280;11852;50.082;18.554;2023-02-28T03:56:47;99771.5;;;-1.08;66.96
23361;BME280;11852;50.082;18.554;2023-02-28T04:00:12;99775.0;;;-1.12;67.06
23361;BME280;11852;50.082;18.554;2023-02-28T04:01:25;99772.5;;;-1.1;67.07
23361;BME280;11852;50.082;18.554;2023-02-28T04:02:32;99777.0;;;-1.13;67.23
23361;BME280;11852;50.082;18.554;2023-02-28T04:03:39;99778.0;;;-1.17;67.45
23361;BME280;11852;50.082;18.554;2023-02-28T04:04:46;99780.5;;;-1.21;67.58
23361;BME280;11852;50.082;18.554;2023-02-28T04:05:53;99780.5;;;-1.22;67.78
23361;BME280;11852;50.082;18.554;2023-02-28T04:07:04;99781.5;;;-1.23;67.85
23361;BME280;11852;50.082;18.554;2023-02-28T04:08:10;99780.5;;;-1.27;68.06
23361;BME280;11852;50.082;18.554;2023-02-28T04:09:19;99780.5;;;-1.3;68.18
23361;BME280;11852;50.082;18.554;2023-02-28T04:10:26;99779.51;;;-1.32;68.28
23361;BME280;11852;50.082;18.554;2023-02-28T04:12:45;99779.0;;;-1.36;68.47
23361;BME280;11852;50.082;18.554;2023-02-28T04:13:51;99779.5;;;-1.38;68.57
23361;BME280;11852;50.082;18.554;2023-02-28T04:15:01;99782.5;;;-1.4;68.83
23361;BME280;11852;50.082;18.554;2023-02-28T04:16:08;99784.0;;;-1.4;68.99
23361;BME280;11852;50.082;18.554;2023-02-28T04:17:15;99781.99;;;-1.41;69.21
23361;BME280;11852;50.082;18.554;2023-02-28T04:18:22;99784.0;;;-1.43;69.14
23361;BME280;11852;50.082;18.554;2023-02-28T04:19:32;99781.0;;;-1.45;69.07
23361;BME280;11852;50.082;18.554;2023-02-28T04:20:39;99784.0;;;-1.47;69.18
23361;BME280;11852;50.082;18.554;2023-02-28T04:21:49;99781.99;;;-1.48;69.55
23361;BME280;11852;50.082;18.554;2023-02-28T04:22:54;99781.49;;;-1.48;69.82
23361;BME280;11852;50.082;18.554;2023-02-28T04:24:02;99786.0;;;-1.45;69.82
23361;BME280;11852;50.082;18.554;2023-02-28T04:25:10;99782.99;;;-1.42;69.78
23361;BME280;11852;50.082;18.554;2023-02-28T04:26:17;99786.5;;;-1.4;69.88
23361;BME280;11852;50.082;18.554;2023-02-28T04:27:26;99790.5;;;-1.38;69.81
23361;BME280;11852;50.082;18.554;2023-02-28T04:28:36;99791.0;;;-1.38;69.81
23361;BME280;11852;50.082;18.554;2023-02-28T04:29:42;99789.0;;;-1.33;69.79
23361;BME280;11852;50.082;18.554;2023-02-28T04:30:57;99790.0;;;-1.33;69.79
23361;BME280;11852;50.082;18.554;2023-02-28T04:32:04;99791.0;;;-1.34;69.76
23361;BME280;11852;50.082;18.554;2023-02-28T04:33:10;99790.5;;;-1.35;69.65
23361;BME280;11852;50.082;18.554;2023-02-28T04:34:17;99790.0;;;-1.36;69.61
23361;BME280;11852;50.082;18.554;2023-02-28T04:35:24;99792.51;;;-1.33;69.65
23361;BME280;11852;50.082;18.554;2023-02-28T04:36:31;99793.01;;;-1.3;69.78
23361;BME280;11852;50.082;18.554;2023-02-28T04:37:38;99796.5;;;-1.29;69.83
23361;BME280;11852;50.082;18.554;2023-02-28T04:38:46;99795.0;;;-1.29;69.77
23361;BME280;11852;50.082;18.554;2023-02-28T04:39:54;99794.49;;;-1.27;69.75
23361;BME280;11852;50.082;18.554;2023-02-28T04:41:01;99791.5;;;-1.24;69.65
23361;BME280;11852;50.082;18.554;2023-02-28T04:42:10;99790.5;;;-1.23;69.58
23361;BME280;11852;50.082;18.554;2023-02-28T04:43:17;99794.0;;;-1.22;69.44
23361;BME280;11852;50.082;18.554;2023-02-28T04:44:25;99795.0;;;-1.24;69.5
23361;BME280;11852;50.082;18.554;2023-02-28T04:45:33;99794.99;;;-1.26;69.48
23361;BME280;11852;50.082;18.554;2023-02-28T04:46:43;99795.0;;;-1.25;69.49
23361;BME280;11852;50.082;18.554;2023-02-28T04:47:49;99795.0;;;-1.26;69.57
23361;BME280;11852;50.082;18.554;2023-02-28T04:48:56;99795.5;;;-1.25;69.58
23361;BME280;11852;50.082;18.554;2023-02-28T04:50:03;99792.01;;;-1.25;69.58
23361;BME280;11852;50.082;18.554;2023-02-28T04:51:14;99787.0;;;-1.22;69.48
23361;BME280;11852;50.082;18.554;2023-02-28T04:52:20;99787.5;;;-1.21;69.42
23361;BME280;11852;50.082;18.554;2023-02-28T04:53:27;99786.5;;;-1.22;69.47
23361;BME280;11852;50.082;18.554;2023-02-28T04:54:34;99787.0;;;-1.23;69.53
23361;BME280;11852;50.082;18.554;2023-02-28T04:55:41;99785.5;;;-1.22;69.42
23361;BME280;11852;50.082;18.554;2023-02-28T04:56:50;99784.5;;;-1.26;69.54
23361;BME280;11852;50.082;18.554;2023-02-28T04:57:57;99787.5;;;-1.31;69.66
23361;BME280;11852;50.082;18.554;2023-02-28T04:59:04;99788.0;;;-1.28;69.55
23361;BME280;11852;50.082;18.554;2023-02-28T05:00:13;99790.5;;;-1.31;69.68
23361;BME280;11852;50.082;18.554;2023-02-28T05:01:23;99788.0;;;-1.29;69.73
23361;BME280;11852;50.082;18.554;2023-02-28T05:02:30;99787.5;;;-1.3;69.68
23361;BME280;11852;50.082;18.554;2023-02-28T05:03:37;99789.5;;;-1.31;69.71
23361;BME280;11852;50.082;18.554;2023-02-28T05:04:44;99792.5;;;-1.32;69.65
23361;BME280;11852;50.082;18.554;2023-02-28T05:05:51;99790.5;;;-1.33;69.72
23361;BME280;11852;50.082;18.554;2023-02-28T05:07:00;99792.51;;;-1.4;69.82
23361;BME280;11852;50.082;18.554;2023-02-28T05:08:07;99795.49;;;-1.37;69.77
23361;BME280;11852;50.082;18.554;2023-02-28T05:09:14;99797.5;;;-1.37;69.82
23361;BME280;11852;50.082;18.554;2023-02-28T05:10:23;99797.0;;;-1.35;69.86
23361;BME280;11852;50.082;18.554;2023-02-28T05:11:31;99798.5;;;-1.4;70.11
23361;BME280;11852;50.082;18.554;2023-02-28T05:12:37;99796.5;;;-1.37;70.02
23361;BME280;11852;50.082;18.554;2023-02-28T05:13:44;99794.49;;;-1.36;70.1
23361;BME280;11852;50.082;18.554;2023-02-28T05:14:55;99795.49;;;-1.37;70.12
23361;BME280;11852;50.082;18.554;2023-02-28T05:16:02;99794.49;;;-1.36;70.26
23361;BME280;11852;50.082;18.554;2023-02-28T05:17:09;99796.5;;;-1.38;70.33
23361;BME280;11852;50.082;18.554;2023-02-28T05:18:19;99796.5;;;-1.41;70.42
23361;BME280;11852;50.082;18.554;2023-02-28T05:19:26;99797.5;;;-1.4;70.4
23361;BME280;11852;50.082;18.554;2023-02-28T05:20:33;99794.49;;;-1.44;70.43
23361;BME280;11852;50.082;18.554;2023-02-28T05:23:00;99794.5;;;-1.45;70.64
23361;BME280;11852;50.082;18.554;2023-02-28T05:24:09;99795.49;;;-1.49;70.67
23361;BME280;11852;50.082;18.554;2023-02-28T05:25:16;99797.0;;;-1.48;70.69
23361;BME280;11852;50.082;18.554;2023-02-28T05:26:21;99796.5;;;-1.46;70.81
23361;BME280;11852;50.082;18.554;2023-02-28T05:27:28;99794.49;;;-1.51;70.85
23361;BME280;11852;50.082;18.554;2023-02-28T05:28:38;99795.5;;;-1.5;70.82
23361;BME280;11852;50.082;18.554;2023-02-28T05:29:45;99801.0;;;-1.48;70.92
23361;BME280;11852;50.082;18.554;2023-02-28T05:30:52;99799.5;;;-1.48;70.96
23361;BME280;11852;50.082;18.554;2023-02-28T05:31:59;99801.0;;;-1.51;71.04
23361;BME280;11852;50.082;18.554;2023-02-28T05:33:10;99801.5;;;-1.57;71.08
23361;BME280;11852;50.082;18.554;2023-02-28T05:34:17;99804.5;;;-1.58;71.1
23361;BME280;11852;50.082;18.554;2023-02-28T05:35:24;99804.5;;;-1.56;71.22
23361;BME280;11852;50.082;18.554;2023-02-28T05:36:30;99804.0;;;-1.59;71.5
23361;BME280;11852;50.082;18.554;2023-02-28T05:37:38;99804.51;;;-1.54;71.41
23361;BME280;11852;50.082;18.554;2023-02-28T05:38:47;99813.5;;;-1.49;71.44
23361;BME280;11852;50.082;18.554;2023-02-28T05:39:54;99816.5;;;-1.44;71.35
23361;BME280;11852;50.082;18.554;2023-02-28T05:41:04;99817.5;;;-1.43;71.28
23361;BME280;11852;50.082;18.554;2023-02-28T05:42:08;99815.0;;;-1.45;71.19
23361;BME280;11852;50.082;18.554;2023-02-28T05:43:15;99817.5;;;-1.44;71.38
23361;BME280;11852;50.082;18.554;2023-02-28T05:44:22;99815.5;;;-1.53;71.64
23361;BME280;11852;50.082;18.554;2023-02-28T05:45:29;99819.99;;;-1.62;71.54
23361;BME280;11852;50.082;18.554;2023-02-28T05:46:37;99818.51;;;-1.57;71.47
23361;BME280;11852;50.082;18.554;2023-02-28T05:47:43;99819.5;;;-1.53;71.58
23361;BME280;11852;50.082;18.554;2023-02-28T05:48:54;99823.0;;;-1.5;71.6
23361;BME280;11852;50.082;18.554;2023-02-28T05:50:03;99824.0;;;-1.48;71.8
23361;BME280;11852;50.082;18.554;2023-02-28T05:51:12;99825.5;;;-1.47;71.79
23361;BME280;11852;50.082;18.554;2023-02-28T05:52:18;99829.5;;;-1.45;71.83
23361;BME280;11852;50.082;18.554;2023-02-28T05:53:26;99827.0;;;-1.44;71.77
23361;BME280;11852;50.082;18.554;2023-02-28T05:54:32;99828.0;;;-1.43;71.65
23361;BME280;11852;50.082;18.554;2023-02-28T05:55:40;99828.5;;;-1.41;71.78
23361;BME280;11852;50.082;18.554;2023-02-28T05:56:47;99830.0;;;-1.4;71.85
23361;BME280;11852;50.082;18.554;2023-02-28T05:57:54;99832.99;;;-1.44;71.81
23361;BME280;11852;50.082;18.554;2023-02-28T05:59:01;99836.0;;;-1.43;71.85
23361;BME280;11852;50.082;18.554;2023-02-28T06:00:08;99838.5;;;-1.42;71.71
23361;BME280;11852;50.082;18.554;2023-02-28T06:01:21;99838.5;;;-1.41;71.79
23361;BME280;11852;50.082;18.554;2023-02-28T06:02:27;99840.5;;;-1.38;71.76
23361;BME280;11852;50.082;18.554;2023-02-28T06:03:33;99840.0;;;-1.39;71.86
23361;BME280;11852;50.082;18.554;2023-02-28T06:04:40;99843.0;;;-1.39;71.79
23361;BME280;11852;50.082;18.554;2023-02-28T06:05:47;99841.5;;;-1.37;71.65
23361;BME280;11852;50.082;18.554;2023-02-28T06:06:55;99844.99;;;-1.38;71.73
23361;BME280;11852;50.082;18.554;2023-02-28T06:08:05;99843.5;;;-1.38;71.76
23361;BME280;11852;50.082;18.554;2023-02-28T06:09:15;99845.49;;;-1.36;71.73
23361;BME280;11852;50.082;18.554;2023-02-28T06:10:23;99849.0;;;-1.34;71.68
23361;BME280;11852;50.082;18.554;2023-02-28T06:11:30;99848.0;;;-1.36;71.82
23361;BME280;11852;50.082;18.554;2023-02-28T06:12:37;99847.5;;;-1.35;71.68
23361;BME280;11852;50.082;18.554;2023-02-28T06:13:44;99852.5;;;-1.33;71.64
23361;BME280;11852;50.082;18.554;2023-02-28T06:14:51;99853.5;;;-1.34;71.71
23361;BME280;11852;50.082;18.554;2023-02-28T06:16:00;99853.0;;;-1.36;71.71
23361;BME280;11852;50.082;18.554;2023-02-28T06:17:05;99856.0;;;-1.37;71.64
23361;BME280;11852;50.082;18.554;2023-02-28T06:18:12;99856.0;;;-1.39;71.71
23361;BME280;11852;50.082;18.554;2023-02-28T06:19:23;99856.0;;;-1.37;71.89
23361;BME280;11852;50.082;18.554;2023-02-28T06:20:30;99859.0;;;-1.37;71.83
23361;BME280;11852;50.082;18.554;2023-02-28T06:21:37;99858.0;;;-1.36;71.82
23361;BME280;11852;50.082;18.554;2023-02-28T06:22:47;99859.5;;;-1.36;71.81
23361;BME280;11852;50.082;18.554;2023-02-28T06:23:55;99858.5;;;-1.35;71.98
23361;BME280;11852;50.082;18.554;2023-02-28T06:25:06;99860.0;;;-1.32;71.96
23361;BME280;11852;50.082;18.554;2023-02-28T06:26:12;99858.5;;;-1.32;72.04
23361;BME280;11852;50.082;18.554;2023-02-28T06:27:20;99860.5;;;-1.31;71.93
23361;BME280;11852;50.082;18.554;2023-02-28T06:28:27;99859.0;;;-1.29;71.94
23361;BME280;11852;50.082;18.554;2023-02-28T06:29:35;99863.0;;;-1.31;72.1
23361;BME280;11852;50.082;18.554;2023-02-28T06:30:42;99865.0;;;-1.37;72.1
23361;BME280;11852;50.082;18.554;2023-02-28T06:31:49;99867.5;;;-1.32;71.94
23361;BME280;11852;50.082;18.554;2023-02-28T06:32:56;99867.5;;;-1.34;72.06